Time;durP1;ratioP1;P1;durP2;ratioP2;P2;SDS_P1;SDS_P2;PMS_P1;PMS_P2;Temp;Humidity;BMP_temperature;BMP_pressure;BME280_temperature;BME280_humidity;BME280_pressure;Samples;Min_cycle;Max_cycle;Signal;HPM_P1;HPM_P2
2022/01/14 00:01:21;;;;;;;28.42;12.38;;;;;;;;;;5061885;28;20531;-69
2022/01/14 00:03:47;;;;;;;25.23;12.40;;;;;;;;;;5062886;28;20502;-69
2022/01/14 00:06:12;;;;;;;23.55;11.63;;;;;;;;;;5058815;28;20037;-70
2022/01/14 00:08:37;;;;;;;24.17;11.50;;;;;;;;;;5058644;28;20071;-69
2022/01/14 00:11:03;;;;;;;28.42;11.63;;;;;;;;;;5064516;28;20407;-69
2022/01/14 00:16:13;;;;;;;22.17;10.38;;;;;;;;;;5055837;28;20082;-70
2022/01/14 00:18:39;;;;;;;27.40;11.82;;;;;;;;;;5045756;28;20021;-69
2022/01/14 00:21:04;;;;;;;25.15;12.05;;;;;;;;;;5057744;28;20127;-69
2022/01/14 00:23:34;;;;;;;23.20;11.75;;;;;;;;;;5059893;28;20056;-69
2022/01/14 00:31:46;;;;;;;17.30;9.95;;;;;;;;;;5060764;28;20063;-69
2022/01/14 00:34:12;;;;;;;26.08;11.10;;;;;;;;;;5061254;28;20031;-69
2022/01/14 00:36:38;;;;;;;20.42;9.23;;;;;;;;;;5059522;28;20282;-69
2022/01/14 00:39:05;;;;;;;24.15;11.88;;;;;;;;;;5058595;28;20035;-70
2022/01/14 00:41:30;;;;;;;23.17;12.18;;;;;;;;;;5061297;28;20016;-69
2022/01/14 00:44:01;;;;;;;27.85;13.32;;;;;;;;;;5057337;28;20095;-69
2022/01/14 00:46:26;;;;;;;27.30;13.50;;;;;;;;;;5057747;28;20028;-69
2022/01/14 00:48:52;;;;;;;30.38;12.95;;;;;;;;;;5056628;28;20061;-69
2022/01/14 00:51:17;;;;;;;26.70;11.90;;;;;;;;;;5059321;28;20020;-69
2022/01/14 00:53:42;;;;;;;27.45;12.35;;;;;;;;;;5059094;28;20100;-70
2022/01/14 00:56:21;;;;;;;22.55;11.57;;;;;;;;;;5061390;28;20111;-69
2022/01/14 01:01:30;;;;;;;24.30;10.90;;;;;;;;;;5055698;28;20031;-69
2022/01/14 01:03:55;;;;;;;23.83;11.95;;;;;;;;;;5046377;28;20025;-69
2022/01/14 01:06:21;;;;;;;27.10;12.43;;;;;;;;;;5056716;28;20439;-69
2022/01/14 01:08:49;;;;;;;25.63;12.50;;;;;;;;;;5061656;28;20553;-69
2022/01/14 01:11:14;;;;;;;29.00;12.45;;;;;;;;;;5075373;28;20043;-69
2022/01/14 01:13:47;;;;;;;28.75;12.18;;;;;;;;;;5056047;28;20017;-69
2022/01/14 01:16:12;;;;;;;25.40;12.07;;;;;;;;;;5056809;28;20044;-69
2022/01/14 01:18:38;;;;;;;30.77;13.00;;;;;;;;;;5058107;28;20037;-69
2022/01/14 01:21:03;;;;;;;27.40;13.18;;;;;;;;;;5057443;28;20085;-69
2022/01/14 01:23:28;;;;;;;22.92;12.13;;;;;;;;;;5056973;28;20028;-69
2022/01/14 01:26:02;;;;;;;26.25;11.90;;;;;;;;;;5059194;28;20024;-69
2022/01/14 01:28:28;;;;;;;25.23;11.70;;;;;;;;;;5059458;28;20033;-69
2022/01/14 01:33:21;;;;;;;27.95;11.93;;;;;;;;;;5056381;28;20035;-69
2022/01/14 01:35:46;;;;;;;27.27;12.07;;;;;;;;;;5056231;28;20036;-69
2022/01/14 01:38:16;;;;;;;22.10;11.65;;;;;;;;;;5054533;28;20171;-69
2022/01/14 01:40:43;;;;;;;24.33;11.82;;;;;;;;;;5060348;28;20025;-69
2022/01/14 01:43:10;;;;;;;24.10;11.50;;;;;;;;;;5055477;28;20327;-69
2022/01/14 01:45:35;;;;;;;28.98;13.13;;;;;;;;;;5043510;28;20036;-69
2022/01/14 01:48:00;;;;;;;24.38;12.32;;;;;;;;;;5059268;28;20376;-69
2022/01/14 01:50:27;;;;;;;25.55;13.18;;;;;;;;;;5056867;28;20475;-69
2022/01/14 01:52:53;;;;;;;30.40;13.35;;;;;;;;;;5056250;28;20040;-70
2022/01/14 01:55:20;;;;;;;28.45;12.63;;;;;;;;;;5058420;28;20021;-69
2022/01/14 01:57:46;;;;;;;27.58;12.70;;;;;;;;;;5056113;28;20514;-69
2022/01/14 02:00:13;;;;;;;29.02;13.95;;;;;;;;;;5054505;28;20056;-69
2022/01/14 02:02:38;;;;;;;22.92;11.52;;;;;;;;;;5057875;28;20039;-69
2022/01/14 02:05:04;;;;;;;25.52;12.40;;;;;;;;;;5041021;28;20036;-69
2022/01/14 02:07:31;;;;;;;25.35;13.30;;;;;;;;;;5056336;28;20032;-70
2022/01/14 02:09:57;;;;;;;25.17;12.32;;;;;;;;;;5025808;28;20029;-69
2022/01/14 02:12:22;;;;;;;27.02;13.95;;;;;;;;;;5057108;28;20052;-69
2022/01/14 02:15:09;;;;;;;25.80;11.23;;;;;;;;;;5058523;28;20162;-69
2022/01/14 02:23:17;;;;;;;26.65;12.52;;;;;;;;;;5056054;28;20110;-70
2022/01/14 02:25:44;;;;;;;26.88;12.38;;;;;;;;;;5072135;28;20438;-69
2022/01/14 02:28:13;;;;;;;21.67;11.38;;;;;;;;;;5060897;28;20028;-69
2022/01/14 02:30:39;;;;;;;26.40;12.35;;;;;;;;;;5040260;28;20111;-69
2022/01/14 02:33:05;;;;;;;26.02;12.13;;;;;;;;;;5043638;28;20503;-69
2022/01/14 02:35:30;;;;;;;27.15;12.80;;;;;;;;;;5042951;28;20082;-69
2022/01/14 02:37:55;;;;;;;29.65;13.30;;;;;;;;;;5059564;28;20048;-69
2022/01/14 02:40:21;;;;;;;23.67;12.25;;;;;;;;;;5057572;28;20450;-69
2022/01/14 02:42:49;;;;;;;25.38;13.05;;;;;;;;;;5055007;28;20395;-69
2022/01/14 02:45:15;;;;;;;27.52;12.85;;;;;;;;;;5057816;28;20013;-69
2022/01/14 02:47:41;;;;;;;25.38;12.48;;;;;;;;;;5059183;28;20017;-69
2022/01/14 02:50:08;;;;;;;24.08;12.32;;;;;;;;;;5055369;28;20032;-69
2022/01/14 02:52:43;;;;;;;27.45;12.63;;;;;;;;;;5058615;28;20151;-69
2022/01/14 02:55:20;;;;;;;27.23;13.63;;;;;;;;;;5058405;28;20024;-69
2022/01/14 02:57:47;;;;;;;23.45;11.50;;;;;;;;;;5056444;28;20028;-69
2022/01/14 03:00:13;;;;;;;22.05;11.10;;;;;;;;;;5056544;28;20020;-69
2022/01/14 03:02:41;;;;;;;21.15;10.73;;;;;;;;;;5055338;28;20039;-69
2022/01/14 03:05:07;;;;;;;22.85;11.70;;;;;;;;;;5061712;28;20546;-69
2022/01/14 03:07:32;;;;;;;24.90;11.73;;;;;;;;;;5061547;28;20146;-69
2022/01/14 03:09:57;;;;;;;23.45;10.95;;;;;;;;;;5060566;28;20486;-69
2022/01/14 03:12:23;;;;;;;24.13;10.80;;;;;;;;;;5061068;28;20511;-69
2022/01/14 03:14:48;;;;;;;22.02;10.80;;;;;;;;;;5037821;28;20048;-69
2022/01/14 03:17:13;;;;;;;24.05;11.52;;;;;;;;;;5065144;28;20074;-69
2022/01/14 03:19:39;;;;;;;24.70;13.18;;;;;;;;;;5061324;28;20052;-69
2022/01/14 03:22:18;;;;;;;24.77;12.32;;;;;;;;;;5061223;28;20028;-69
2022/01/14 03:27:08;;;;;;;23.55;11.55;;;;;;;;;;5062861;28;20033;-69
2022/01/14 03:29:34;;;;;;;20.70;11.75;;;;;;;;;;5059393;28;20028;-69
2022/01/14 03:31:59;;;;;;;25.35;13.23;;;;;;;;;;5055166;28;20060;-69
2022/01/14 03:34:25;;;;;;;28.60;12.43;;;;;;;;;;5046464;28;20056;-69
2022/01/14 03:36:50;;;;;;;21.15;11.80;;;;;;;;;;5061097;28;20039;-69
2022/01/14 03:39:16;;;;;;;19.98;11.25;;;;;;;;;;5062323;28;20033;-69
2022/01/14 03:41:42;;;;;;;18.85;10.75;;;;;;;;;;5059871;28;20056;-69
2022/01/14 03:44:07;;;;;;;23.52;11.60;;;;;;;;;;5061023;28;20490;-69
2022/01/14 03:46:32;;;;;;;21.95;11.25;;;;;;;;;;5063027;28;20127;-69
2022/01/14 03:48:58;;;;;;;19.48;10.52;;;;;;;;;;5059417;28;20131;-69
2022/01/14 03:51:24;;;;;;;22.23;10.23;;;;;;;;;;5058211;28;20032;-69
2022/01/14 03:53:49;;;;;;;22.58;10.60;;;;;;;;;;5063832;28;20386;-69
2022/01/14 03:56:15;;;;;;;25.02;10.32;;;;;;;;;;5045635;28;20016;-69
2022/01/14 03:58:40;;;;;;;21.17;10.13;;;;;;;;;;5062748;28;20241;-69
2022/01/14 04:01:07;;;;;;;24.00;10.80;;;;;;;;;;5063315;28;20562;-69
2022/01/14 04:03:32;;;;;;;20.60;11.02;;;;;;;;;;5061766;28;20021;-69
2022/01/14 04:05:58;;;;;;;18.35;9.82;;;;;;;;;;5061544;28;20107;-69
2022/01/14 04:08:23;;;;;;;19.85;10.88;;;;;;;;;;5064509;28;20476;-69
2022/01/14 04:10:51;;;;;;;20.45;11.88;;;;;;;;;;5061083;28;20077;-69
2022/01/14 04:13:21;;;;;;;19.23;10.98;;;;;;;;;;5058980;28;20020;-69
2022/01/14 04:15:47;;;;;;;18.33;10.10;;;;;;;;;;5064191;28;20040;-69
2022/01/14 04:18:19;;;;;;;19.92;10.65;;;;;;;;;;5056664;28;20024;-69
2022/01/14 04:20:49;;;;;;;20.92;10.35;;;;;;;;;;5056035;28;20032;-69
2022/01/14 04:23:16;;;;;;;23.35;10.65;;;;;;;;;;5058697;28;20459;-69
2022/01/14 04:25:41;;;;;;;19.27;10.07;;;;;;;;;;5065302;28;20036;-69
2022/01/14 04:28:07;;;;;;;16.90;10.05;;;;;;;;;;5047864;28;20022;-69
2022/01/14 04:30:33;;;;;;;22.63;10.15;;;;;;;;;;5059124;28;20028;-69
2022/01/14 04:32:58;;;;;;;24.27;11.18;;;;;;;;;;5057381;28;20457;-69
2022/01/14 04:35:25;;;;;;;23.45;10.48;;;;;;;;;;5047237;28;20016;-69
2022/01/14 04:37:50;;;;;;;23.17;10.65;;;;;;;;;;5042836;28;20075;-69
2022/01/14 04:40:16;;;;;;;18.27;9.30;;;;;;;;;;5060142;28;20059;-69
2022/01/14 04:42:42;;;;;;;19.27;9.93;;;;;;;;;;5056384;28;20544;-69
2022/01/14 04:45:15;;;;;;;18.92;10.15;;;;;;;;;;5063443;28;20024;-69
2022/01/14 04:47:46;;;;;;;19.27;9.57;;;;;;;;;;5060032;28;20036;-69
2022/01/14 04:50:12;;;;;;;18.38;9.15;;;;;;;;;;5059032;28;20038;-69
2022/01/14 04:52:39;;;;;;;20.92;10.52;;;;;;;;;;5058344;28;20020;-69
2022/01/14 04:55:06;;;;;;;19.60;9.98;;;;;;;;;;5062551;28;20593;-69
2022/01/14 04:57:31;;;;;;;20.27;10.82;;;;;;;;;;5060252;28;20039;-69
2022/01/14 04:59:56;;;;;;;20.17;10.13;;;;;;;;;;5063233;28;20030;-69
2022/01/14 05:02:22;;;;;;;17.83;9.32;;;;;;;;;;5057193;28;20083;-69
2022/01/14 05:04:47;;;;;;;21.58;10.85;;;;;;;;;;5059517;28;20025;-69
2022/01/14 05:07:23;;;;;;;22.85;11.90;;;;;;;;;;5060547;28;20402;-69
2022/01/14 05:09:57;;;;;;;20.02;10.32;;;;;;;;;;5059856;28;20537;-69
2022/01/14 05:12:23;;;;;;;21.02;10.50;;;;;;;;;;5061360;28;20036;-69
2022/01/14 05:14:48;;;;;;;18.05;9.73;;;;;;;;;;5057791;28;20043;-69
2022/01/14 05:17:13;;;;;;;19.02;10.15;;;;;;;;;;5060194;28;20033;-69
2022/01/14 05:19:39;;;;;;;18.00;9.68;;;;;;;;;;5058302;28;20028;-69
2022/01/14 05:22:05;;;;;;;18.60;9.18;;;;;;;;;;5060868;28;20025;-72
2022/01/14 05:24:30;;;;;;;16.80;8.90;;;;;;;;;;5048433;28;20109;-72
2022/01/14 05:26:55;;;;;;;19.58;9.77;;;;;;;;;;5051424;28;20460;-72
2022/01/14 05:29:21;;;;;;;18.75;9.55;;;;;;;;;;5050282;28;20087;-72
2022/01/14 05:31:51;;;;;;;18.08;9.63;;;;;;;;;;5050628;28;20463;-72
2022/01/14 05:34:17;;;;;;;17.30;9.20;;;;;;;;;;5036854;28;20021;-73
2022/01/14 05:36:42;;;;;;;18.70;10.30;;;;;;;;;;5051402;28;20124;-72
2022/01/14 05:39:08;;;;;;;20.77;10.45;;;;;;;;;;5048271;28;20063;-72
2022/01/14 05:41:33;;;;;;;20.95;10.27;;;;;;;;;;5051577;28;20414;-72
2022/01/14 05:43:59;;;;;;;19.23;9.88;;;;;;;;;;5034383;28;20021;-72
2022/01/14 05:46:24;;;;;;;17.88;9.27;;;;;;;;;;5051459;28;20035;-72
2022/01/14 05:48:49;;;;;;;13.65;8.13;;;;;;;;;;5036934;28;20091;-73
2022/01/14 05:51:15;;;;;;;15.63;8.57;;;;;;;;;;5049225;28;20063;-72
2022/01/14 05:53:40;;;;;;;13.80;8.27;;;;;;;;;;5049523;28;20467;-72
2022/01/14 05:56:05;;;;;;;14.00;7.40;;;;;;;;;;5047995;28;20025;-72
2022/01/14 05:58:30;;;;;;;14.25;7.43;;;;;;;;;;5051471;28;20036;-72
2022/01/14 06:00:56;;;;;;;16.25;7.60;;;;;;;;;;5047356;28;20043;-72
2022/01/14 06:03:22;;;;;;;16.95;7.72;;;;;;;;;;5067107;28;20032;-72
2022/01/14 06:05:48;;;;;;;11.45;6.78;;;;;;;;;;5051075;28;20487;-72
2022/01/14 06:08:13;;;;;;;15.00;6.97;;;;;;;;;;5054042;28;20043;-72
2022/01/14 06:10:38;;;;;;;12.38;6.97;;;;;;;;;;5050887;28;20098;-72
2022/01/14 06:13:04;;;;;;;14.00;7.20;;;;;;;;;;5050218;28;20052;-72
2022/01/14 06:15:29;;;;;;;13.20;7.82;;;;;;;;;;5046430;28;20198;-73
2022/01/14 06:17:54;;;;;;;11.35;6.75;;;;;;;;;;5047345;28;20416;-72
2022/01/14 06:20:19;;;;;;;13.25;6.93;;;;;;;;;;5048193;28;20056;-72
2022/01/14 06:22:45;;;;;;;10.45;6.55;;;;;;;;;;5052437;28;20036;-72
2022/01/14 06:25:10;;;;;;;17.30;7.72;;;;;;;;;;5050622;28;20170;-72
2022/01/14 06:27:36;;;;;;;15.52;7.40;;;;;;;;;;5048408;28;20159;-72
2022/01/14 06:30:03;;;;;;;11.60;6.60;;;;;;;;;;5051292;28;20040;-72
2022/01/14 06:32:28;;;;;;;11.35;6.78;;;;;;;;;;5045953;28;20045;-72
2022/01/14 06:34:53;;;;;;;13.65;6.63;;;;;;;;;;5064447;28;20032;-72
2022/01/14 06:37:19;;;;;;;13.27;7.68;;;;;;;;;;5049124;28;20056;-72
2022/01/14 06:39:44;;;;;;;16.52;8.00;;;;;;;;;;5046637;28;20033;-71
2022/01/14 06:42:09;;;;;;;14.98;8.45;;;;;;;;;;5048656;28;20134;-73
2022/01/14 06:44:35;;;;;;;16.52;7.47;;;;;;;;;;5048712;28;20504;-73
2022/01/14 06:47:00;;;;;;;13.48;7.70;;;;;;;;;;5049680;28;20063;-72
2022/01/14 06:49:25;;;;;;;12.93;7.20;;;;;;;;;;5055183;28;20052;-74
2022/01/14 06:51:51;;;;;;;13.25;7.38;;;;;;;;;;5054725;28;20118;-71
2022/01/14 06:54:16;;;;;;;13.13;7.35;;;;;;;;;;5053935;28;20059;-73
2022/01/14 06:56:41;;;;;;;18.30;8.57;;;;;;;;;;5053168;28;20144;-74
2022/01/14 06:59:07;;;;;;;17.45;7.80;;;;;;;;;;5049956;28;20449;-72
2022/01/14 07:01:32;;;;;;;14.23;7.43;;;;;;;;;;5050042;28;20452;-74
2022/01/14 07:03:57;;;;;;;12.82;7.68;;;;;;;;;;5039678;28;20029;-72
2022/01/14 07:06:23;;;;;;;15.07;8.18;;;;;;;;;;5052050;28;20064;-73
2022/01/14 07:08:48;;;;;;;15.52;8.07;;;;;;;;;;5051933;28;20123;-73
2022/01/14 07:11:14;;;;;;;15.10;7.82;;;;;;;;;;5051939;28;20503;-72
2022/01/14 07:13:40;;;;;;;17.55;8.13;;;;;;;;;;5052757;28;20540;-73
2022/01/14 07:16:05;;;;;;;13.57;7.25;;;;;;;;;;5051524;28;20111;-74
2022/01/14 07:18:31;;;;;;;13.32;7.03;;;;;;;;;;5052367;28;20036;-73
2022/01/14 07:20:56;;;;;;;11.68;6.82;;;;;;;;;;5052433;28;20116;-73
2022/01/14 07:23:21;;;;;;;13.32;7.05;;;;;;;;;;5048377;28;20032;-74
2022/01/14 07:25:46;;;;;;;14.70;7.57;;;;;;;;;;5061621;28;20057;-74
2022/01/14 07:28:12;;;;;;;16.35;7.10;;;;;;;;;;5061396;28;20028;-72
2022/01/14 07:30:37;;;;;;;14.68;6.53;;;;;;;;;;5057738;28;20592;-72
2022/01/14 07:33:02;;;;;;;15.68;6.70;;;;;;;;;;5051516;28;20012;-72
2022/01/14 07:35:28;;;;;;;11.48;6.47;;;;;;;;;;5052107;28;20700;-75
2022/01/14 07:37:53;;;;;;;11.77;6.38;;;;;;;;;;5053937;28;20598;-73
2022/01/14 07:40:18;;;;;;;13.20;7.07;;;;;;;;;;5050403;28;20046;-72
2022/01/14 07:42:44;;;;;;;12.38;7.10;;;;;;;;;;5045150;28;20028;-72
2022/01/14 07:45:09;;;;;;;14.63;7.93;;;;;;;;;;5047819;28;20529;-71
2022/01/14 07:47:34;;;;;;;14.15;7.60;;;;;;;;;;5050077;28;20114;-75
2022/01/14 07:50:00;;;;;;;14.80;7.65;;;;;;;;;;5049563;28;20032;-72
2022/01/14 07:52:25;;;;;;;12.68;7.28;;;;;;;;;;5054225;28;20024;-72
2022/01/14 07:54:50;;;;;;;11.65;6.63;;;;;;;;;;5054514;28;20495;-71
2022/01/14 07:57:17;;;;;;;20.58;7.22;;;;;;;;;;5052838;28;20036;-75
2022/01/14 07:59:42;;;;;;;13.57;6.72;;;;;;;;;;5047473;28;20131;-72
2022/01/14 08:02:07;;;;;;;12.70;6.63;;;;;;;;;;5048438;28;20063;-74
2022/01/14 08:04:35;;;;;;;14.23;7.30;;;;;;;;;;5044688;28;20068;-71
2022/01/14 08:07:08;;;;;;;14.13;7.47;;;;;;;;;;5046575;28;20044;-73
2022/01/14 08:09:35;;;;;;;10.57;6.20;;;;;;;;;;5048960;28;20043;-73
2022/01/14 08:12:00;;;;;;;9.35;6.30;;;;;;;;;;5036425;28;20661;-73
2022/01/14 08:14:26;;;;;;;11.05;6.38;;;;;;;;;;5052718;28;20035;-72
2022/01/14 08:16:51;;;;;;;12.15;6.55;;;;;;;;;;5053619;28;20119;-74
2022/01/14 08:19:16;;;;;;;12.32;7.05;;;;;;;;;;5049226;28;20062;-73
2022/01/14 08:21:42;;;;;;;10.82;6.13;;;;;;;;;;5048313;28;20060;-73
2022/01/14 08:24:07;;;;;;;12.20;6.70;;;;;;;;;;5053311;28;20231;-73
2022/01/14 08:26:32;;;;;;;9.82;6.57;;;;;;;;;;5032283;28;20117;-73
2022/01/14 08:28:58;;;;;;;12.30;7.00;;;;;;;;;;5047158;28;20056;-73
2022/01/14 08:31:23;;;;;;;14.05;7.28;;;;;;;;;;5045001;28;20742;-73
2022/01/14 08:33:48;;;;;;;12.32;6.60;;;;;;;;;;5048829;28;20408;-72
2022/01/14 08:36:14;;;;;;;9.68;6.35;;;;;;;;;;5049946;28;20541;-73
2022/01/14 08:38:39;;;;;;;10.10;6.20;;;;;;;;;;5053638;28;20032;-73
2022/01/14 08:41:05;;;;;;;9.38;5.90;;;;;;;;;;5050099;28;20151;-74
2022/01/14 08:43:30;;;;;;;10.43;6.68;;;;;;;;;;5055548;28;20154;-72
2022/01/14 08:45:58;;;;;;;11.40;6.20;;;;;;;;;;5053858;28;20139;-71
2022/01/14 08:48:26;;;;;;;9.80;5.63;;;;;;;;;;5053601;28;20044;-72
2022/01/14 08:50:52;;;;;;;13.60;6.53;;;;;;;;;;5049236;28;21784;-73
2022/01/14 08:53:17;;;;;;;15.90;6.97;;;;;;;;;;5047605;28;20471;-72
2022/01/14 08:55:43;;;;;;;10.10;6.03;;;;;;;;;;5047497;28;20338;-74
2022/01/14 08:58:09;;;;;;;9.05;5.45;;;;;;;;;;5051191;28;20047;-73
2022/01/14 09:00:34;;;;;;;10.30;6.38;;;;;;;;;;5052352;28;20032;-73
2022/01/14 09:03:00;;;;;;;11.10;6.50;;;;;;;;;;5052380;28;20461;-72
2022/01/14 09:05:25;;;;;;;10.25;6.38;;;;;;;;;;5037243;28;20036;-72
2022/01/14 09:07:51;;;;;;;13.75;7.03;;;;;;;;;;5053875;28;20506;-72
2022/01/14 09:10:16;;;;;;;12.48;7.13;;;;;;;;;;5047894;28;20116;-72
2022/01/14 09:12:42;;;;;;;16.92;7.95;;;;;;;;;;5051345;28;20248;-74
2022/01/14 09:15:08;;;;;;;12.10;7.53;;;;;;;;;;5048117;28;20028;-72
2022/01/14 09:17:33;;;;;;;14.55;8.50;;;;;;;;;;5050835;28;20040;-73
2022/01/14 09:19:58;;;;;;;15.50;7.88;;;;;;;;;;5029739;28;20032;-73
2022/01/14 09:22:26;;;;;;;13.52;8.23;;;;;;;;;;5051811;28;20059;-73
2022/01/14 09:24:52;;;;;;;14.60;8.57;;;;;;;;;;5048941;28;20126;-72
2022/01/14 09:27:18;;;;;;;17.33;8.85;;;;;;;;;;5032448;28;20036;-72
2022/01/14 09:29:43;;;;;;;12.65;7.95;;;;;;;;;;5048444;28;20411;-72
2022/01/14 09:32:08;;;;;;;26.05;8.20;;;;;;;;;;5047756;28;20514;-73
2022/01/14 09:34:34;;;;;;;13.48;8.20;;;;;;;;;;5048232;28;20075;-72
2022/01/14 09:37:00;;;;;;;13.52;8.13;;;;;;;;;;5051029;28;20083;-72
2022/01/14 09:39:25;;;;;;;18.25;9.40;;;;;;;;;;5049391;28;20474;-72
2022/01/14 09:41:50;;;;;;;18.73;9.10;;;;;;;;;;5064879;28;20081;-72
2022/01/14 09:44:16;;;;;;;13.65;8.88;;;;;;;;;;5048556;28;20041;-72
2022/01/14 09:46:42;;;;;;;15.13;9.13;;;;;;;;;;5036964;28;20032;-73
2022/01/14 09:49:07;;;;;;;13.00;8.18;;;;;;;;;;5049170;28;20599;-73
2022/01/14 09:51:32;;;;;;;15.45;8.65;;;;;;;;;;5031355;28;20607;-72
2022/01/14 09:53:57;;;;;;;17.45;9.13;;;;;;;;;;5048312;28;20522;-73
2022/01/14 09:56:23;;;;;;;13.10;8.75;;;;;;;;;;5049038;28;20033;-72
2022/01/14 09:58:49;;;;;;;17.13;9.40;;;;;;;;;;5050622;28;20047;-74
2022/01/14 10:01:17;;;;;;;17.33;9.25;;;;;;;;;;5029802;28;20093;-72
2022/01/14 10:03:51;;;;;;;17.23;9.48;;;;;;;;;;5028324;28;20029;-73
2022/01/14 10:06:45;;;;;;;16.48;9.57;;;;;;;;;;5046464;28;20032;-74
2022/01/14 10:09:17;;;;;;;21.92;9.50;;;;;;;;;;5047784;28;20039;-71
2022/01/14 10:11:46;;;;;;;17.13;9.98;;;;;;;;;;5050845;28;20364;-72
2022/01/14 10:14:15;;;;;;;19.00;9.68;;;;;;;;;;5056506;28;20398;-71
2022/01/14 10:16:41;;;;;;;15.60;9.27;;;;;;;;;;5031701;28;20345;-72
2022/01/14 10:19:26;;;;;;;17.50;9.23;;;;;;;;;;5048185;28;20441;-73
2022/01/14 10:21:52;;;;;;;15.43;8.90;;;;;;;;;;5049896;28;20495;-73
2022/01/14 10:24:18;;;;;;;16.23;8.63;;;;;;;;;;5050540;28;20257;-72
2022/01/14 10:26:48;;;;;;;16.38;9.18;;;;;;;;;;5050874;28;21995;-72
2022/01/14 10:29:13;;;;;;;12.68;7.68;;;;;;;;;;5048546;28;20048;-71
2022/01/14 10:31:41;;;;;;;14.48;7.93;;;;;;;;;;5047150;28;20033;-72
2022/01/14 10:34:13;;;;;;;11.15;7.03;;;;;;;;;;5046555;28;20029;-73
2022/01/14 10:36:42;;;;;;;12.70;7.55;;;;;;;;;;5045844;28;20106;-72
2022/01/14 10:39:23;;;;;;;10.52;6.97;;;;;;;;;;5050732;28;20028;-73
2022/01/14 10:41:49;;;;;;;14.93;7.22;;;;;;;;;;5049239;28;20028;-72
2022/01/14 10:44:28;;;;;;;12.38;7.15;;;;;;;;;;5032522;28;20032;-74
2022/01/14 10:47:31;;;;;;;12.30;7.60;;;;;;;;;;5046662;28;20032;-72
2022/01/14 10:49:57;;;;;;;17.15;6.82;;;;;;;;;;5042570;28;20032;-74
2022/01/14 10:52:23;;;;;;;9.45;6.40;;;;;;;;;;5044479;28;20055;-73
2022/01/14 10:54:50;;;;;;;12.88;5.90;;;;;;;;;;5050174;28;20028;-74
2022/01/14 10:57:20;;;;;;;10.13;6.05;;;;;;;;;;5054041;28;21788;-71
2022/01/14 10:59:46;;;;;;;9.65;5.32;;;;;;;;;;5051170;28;20588;-72
2022/01/14 11:02:37;;;;;;;7.70;4.80;;;;;;;;;;5050128;28;20040;-73
2022/01/14 11:05:03;;;;;;;4.93;3.60;;;;;;;;;;5049671;28;20394;-74
2022/01/14 11:07:28;;;;;;;4.93;2.80;;;;;;;;;;5046995;28;20037;-74
2022/01/14 11:09:53;;;;;;;2.47;2.10;;;;;;;;;;5049948;28;20513;-72
2022/01/14 11:12:19;;;;;;;1.73;1.63;;;;;;;;;;5046394;28;20453;-73
2022/01/14 11:14:44;;;;;;;2.25;2.00;;;;;;;;;;5044002;28;20060;-74
2022/01/14 11:17:10;;;;;;;6.00;2.78;;;;;;;;;;5038906;28;20029;-74
2022/01/14 11:19:35;;;;;;;2.42;2.10;;;;;;;;;;5047305;28;20021;-72
2022/01/14 11:24:44;;;;;;;3.65;2.58;;;;;;;;;;5055331;28;20634;-70
2022/01/14 11:27:11;;;;;;;3.65;2.90;;;;;;;;;;5059749;28;20119;-71
2022/01/14 11:29:39;;;;;;;3.95;2.97;;;;;;;;;;5040244;28;20036;-70
2022/01/14 11:32:05;;;;;;;5.03;3.58;;;;;;;;;;5038952;28;20174;-70
2022/01/14 11:34:33;;;;;;;3.83;3.00;;;;;;;;;;5061803;28;20123;-70
2022/01/14 11:37:00;;;;;;;5.43;3.47;;;;;;;;;;5057027;28;20056;-70
2022/01/14 11:39:31;;;;;;;8.32;4.07;;;;;;;;;;5057508;28;20029;-70
2022/01/14 11:42:04;;;;;;;5.47;3.53;;;;;;;;;;5043832;28;20021;-70
2022/01/14 11:44:42;;;;;;;5.50;3.63;;;;;;;;;;5059666;28;20032;-70
2022/01/14 11:47:24;;;;;;;6.50;4.10;;;;;;;;;;5062490;28;20550;-70
2022/01/14 11:49:49;;;;;;;5.63;3.78;;;;;;;;;;5060036;28;20475;-70
2022/01/14 11:52:15;;;;;;;5.82;3.42;;;;;;;;;;5062662;28;20269;-70
2022/01/14 11:54:44;;;;;;;5.07;3.60;;;;;;;;;;5061335;28;20476;-71
2022/01/14 11:57:10;;;;;;;7.07;4.53;;;;;;;;;;5063534;28;20081;-70
2022/01/14 11:59:35;;;;;;;5.50;3.55;;;;;;;;;;5056923;28;20029;-71
2022/01/14 12:02:00;;;;;;;7.05;3.83;;;;;;;;;;5057238;28;20593;-71
2022/01/14 12:05:04;;;;;;;6.68;3.72;;;;;;;;;;5057526;28;20450;-70
2022/01/14 12:07:30;;;;;;;4.95;3.72;;;;;;;;;;5059754;28;20040;-70
2022/01/14 12:09:59;;;;;;;6.00;3.80;;;;;;;;;;5060223;28;20024;-70
2022/01/14 12:12:30;;;;;;;6.63;4.07;;;;;;;;;;5042268;28;20540;-70
2022/01/14 12:14:58;;;;;;;4.20;3.28;;;;;;;;;;5063873;28;20020;-70
2022/01/14 12:17:40;;;;;;;8.15;4.68;;;;;;;;;;5041107;28;20039;-70
2022/01/14 12:20:16;;;;;;;6.13;4.30;;;;;;;;;;5055928;28;20042;-69
2022/01/14 12:22:42;;;;;;;5.45;3.22;;;;;;;;;;5057490;28;20028;-70
2022/01/14 12:25:08;;;;;;;5.35;3.85;;;;;;;;;;5059266;28;20055;-70
2022/01/14 12:27:40;;;;;;;8.45;4.30;;;;;;;;;;5057054;28;20064;-70
2022/01/14 12:30:10;;;;;;;9.13;4.07;;;;;;;;;;5061230;28;20032;-70
2022/01/14 12:32:37;;;;;;;9.38;3.80;;;;;;;;;;5043042;28;20041;-69
2022/01/14 12:35:08;;;;;;;6.50;4.00;;;;;;;;;;5057351;28;20264;-70
2022/01/14 12:37:39;;;;;;;3.60;3.30;;;;;;;;;;5044933;28;20103;-69
2022/01/14 12:40:06;;;;;;;6.15;3.30;;;;;;;;;;5063904;28;20028;-70
2022/01/14 12:42:31;;;;;;;3.92;3.38;;;;;;;;;;5057744;28;20029;-70
2022/01/14 12:44:58;;;;;;;9.85;3.95;;;;;;;;;;5057062;28;20502;-68
2022/01/14 12:47:25;;;;;;;6.80;3.95;;;;;;;;;;5056395;28;20482;-69
2022/01/14 12:49:50;;;;;;;5.13;3.90;;;;;;;;;;5059423;28;20036;-69
2022/01/14 12:52:22;;;;;;;7.50;4.47;;;;;;;;;;5050240;28;20530;-69
2022/01/14 12:54:48;;;;;;;9.57;4.53;;;;;;;;;;5057238;28;20063;-70
2022/01/14 12:57:14;;;;;;;10.10;4.75;;;;;;;;;;5058870;28;20025;-70
2022/01/14 12:59:41;;;;;;;7.38;4.38;;;;;;;;;;5057916;28;20024;-69
2022/01/14 13:02:06;;;;;;;5.55;4.22;;;;;;;;;;5059307;28;20556;-69
2022/01/14 13:04:31;;;;;;;7.88;4.65;;;;;;;;;;5059148;28;20135;-70
2022/01/14 13:06:58;;;;;;;8.73;5.00;;;;;;;;;;5044701;28;20154;-71
2022/01/14 13:09:25;;;;;;;6.75;4.50;;;;;;;;;;5061915;28;20067;-70
2022/01/14 13:11:53;;;;;;;5.43;4.30;;;;;;;;;;5060879;28;20109;-70
2022/01/14 13:14:39;;;;;;;6.50;4.30;;;;;;;;;;5061561;28;20024;-70
2022/01/14 13:17:10;;;;;;;6.90;3.90;;;;;;;;;;5077660;28;20422;-69
2022/01/14 13:19:36;;;;;;;5.47;4.35;;;;;;;;;;5059267;28;20028;-69
2022/01/14 13:22:07;;;;;;;6.95;4.15;;;;;;;;;;5056703;28;20106;-70
2022/01/14 13:24:33;;;;;;;5.78;4.20;;;;;;;;;;5063929;28;20028;-70
2022/01/14 13:27:05;;;;;;;4.13;3.53;;;;;;;;;;5060613;28;20024;-70
2022/01/14 13:29:39;;;;;;;4.43;3.70;;;;;;;;;;5057214;28;20025;-70
2022/01/14 13:32:05;;;;;;;5.70;3.90;;;;;;;;;;5059483;28;20131;-71
2022/01/14 13:34:30;;;;;;;4.47;3.40;;;;;;;;;;5056270;28;20020;-70
2022/01/14 13:36:56;;;;;;;4.85;3.97;;;;;;;;;;5059518;28;20035;-71
2022/01/14 13:39:21;;;;;;;5.40;3.90;;;;;;;;;;5058849;28;20028;-70
2022/01/14 13:41:47;;;;;;;5.35;3.20;;;;;;;;;;5058066;28;20039;-70
2022/01/14 13:44:19;;;;;;;8.52;3.60;;;;;;;;;;5056886;28;20027;-70
2022/01/14 13:46:56;;;;;;;6.93;3.65;;;;;;;;;;5073086;28;20120;-70
2022/01/14 13:49:21;;;;;;;3.25;2.95;;;;;;;;;;5055223;28;20033;-71
2022/01/14 13:52:09;;;;;;;3.17;2.90;;;;;;;;;;5057214;28;20025;-71
2022/01/14 13:54:34;;;;;;;3.45;2.80;;;;;;;;;;5062527;28;20099;-70
2022/01/14 13:57:16;;;;;;;3.58;3.10;;;;;;;;;;5065870;28;20478;-71
2022/01/14 13:59:42;;;;;;;5.72;4.47;;;;;;;;;;5064092;28;20505;-69
2022/01/14 14:02:09;;;;;;;7.50;5.35;;;;;;;;;;5059197;28;20054;-69
2022/01/14 14:04:41;;;;;;;8.15;4.82;;;;;;;;;;5060735;28;20032;-69
2022/01/14 14:07:12;;;;;;;3.88;3.47;;;;;;;;;;5061467;28;20028;-71
2022/01/14 14:17:58;;;;;;;2.63;2.42;;;;;;;;;;5048211;28;20036;-71
2022/01/14 14:20:23;;;;;;;2.63;2.42;;;;;;;;;;5060767;28;20048;-69
2022/01/14 14:22:49;;;;;;;2.90;2.60;;;;;;;;;;5057628;28;20078;-69
2022/01/14 14:25:29;;;;;;;3.67;2.40;;;;;;;;;;5062376;28;20052;-68
2022/01/14 14:27:59;;;;;;;4.50;2.10;;;;;;;;;;5062697;28;20032;-69
2022/01/14 14:30:26;;;;;;;2.35;2.13;;;;;;;;;;5060863;28;20051;-69
2022/01/14 14:32:52;;;;;;;2.15;2.05;;;;;;;;;;5062262;28;20036;-69
2022/01/14 14:35:19;;;;;;;2.72;2.30;;;;;;;;;;5061686;28;20398;-71
2022/01/14 14:37:47;;;;;;;5.68;3.08;;;;;;;;;;5056766;28;20104;-70
2022/01/14 14:40:17;;;;;;;3.65;2.55;;;;;;;;;;5066424;28;20127;-70
2022/01/14 14:42:43;;;;;;;2.78;2.53;;;;;;;;;;5058212;28;20486;-70
2022/01/14 14:45:09;;;;;;;4.45;2.45;;;;;;;;;;5060676;28;20037;-69
2022/01/14 14:47:34;;;;;;;2.67;2.33;;;;;;;;;;5065657;28;20411;-69
2022/01/14 14:50:00;;;;;;;2.65;2.40;;;;;;;;;;5058880;28;20468;-70
2022/01/14 14:52:25;;;;;;;2.60;2.20;;;;;;;;;;5076097;28;20067;-70
2022/01/14 14:54:51;;;;;;;3.30;2.20;;;;;;;;;;5034178;28;20518;-70
2022/01/14 14:57:16;;;;;;;5.28;3.13;;;;;;;;;;5043316;28;20111;-70
2022/01/14 14:59:41;;;;;;;4.43;2.50;;;;;;;;;;5062328;28;20108;-70
2022/01/14 15:02:07;;;;;;;3.22;2.45;;;;;;;;;;5064287;28;20060;-70